sensor_id;sensor_type;location;lat;lon;timestamp;temperature;humidity
21563;DHT22;10942;47.894;11.424;2023-05-01T00:00:49;9.40;99.90
21563;DHT22;10942;47.894;11.424;2023-05-01T00:10:38;9.50;99.90
21563;DHT22;10942;47.894;11.424;2023-05-01T00:25:18;9.00;99.90
21563;DHT22;10942;47.894;11.424;2023-05-01T00:30:10;8.80;99.90
21563;DHT22;10942;47.894;11.424;2023-05-01T01:35:20;8.60;99.90
21563;DHT22;10942;47.894;11.424;2023-05-01T01:40:16;8.50;99.90
21563;DHT22;10942;47.894;11.424;2023-05-01T02:07:38;8.30;99.90
21563;DHT22;10942;47.894;11.424;2023-05-01T02:10:07;8.50;99.90
21563;DHT22;10942;47.894;11.424;2023-05-01T02:12:35;8.20;99.90
21563;DHT22;10942;47.894;11.424;2023-05-01T02:15:01;8.20;99.90
21563;DHT22;10942;47.894;11.424;2023-05-01T02:29:51;8.00;99.90
21563;DHT22;10942;47.894;11.424;2023-05-01T02:32:18;8.00;99.90
21563;DHT22;10942;47.894;11.424;2023-05-01T03:44:18;7.50;99.90
21563;DHT22;10942;47.894;11.424;2023-05-01T03:46:44;7.20;99.90
21563;DHT22;10942;47.894;11.424;2023-05-01T03:49:16;7.20;99.90
21563;DHT22;10942;47.894;11.424;2023-05-01T03:51:45;7.10;99.90
21563;DHT22;10942;47.894;11.424;2023-05-01T03:54:12;7.20;99.90
21563;DHT22;10942;47.894;11.424;2023-05-01T03:57:03;7.20;99.90
21563;DHT22;10942;47.894;11.424;2023-05-01T03:59:29;7.20;99.90
21563;DHT22;10942;47.894;11.424;2023-05-01T04:01:55;7.20;99.90
21563;DHT22;10942;47.894;11.424;2023-05-01T04:04:21;7.20;99.90
21563;DHT22;10942;47.894;11.424;2023-05-01T04:06:54;7.20;99.90
21563;DHT22;10942;47.894;11.424;2023-05-01T04:09:19;7.20;99.90
21563;DHT22;10942;47.894;11.424;2023-05-01T04:11:45;7.20;99.90
21563;DHT22;10942;47.894;11.424;2023-05-01T04:14:11;7.20;99.90
21563;DHT22;10942;47.894;11.424;2023-05-01T04:16:38;7.20;99.90
21563;DHT22;10942;47.894;11.424;2023-05-01T04:19:03;7.10;99.90
21563;DHT22;10942;47.894;11.424;2023-05-01T04:21:32;7.20;99.90
21563;DHT22;10942;47.894;11.424;2023-05-01T04:23:58;7.10;99.90
21563;DHT22;10942;47.894;11.424;2023-05-01T04:26:24;7.10;99.90
21563;DHT22;10942;47.894;11.424;2023-05-01T04:28:50;7.10;99.90
21563;DHT22;10942;47.894;11.424;2023-05-01T04:31:20;7.20;99.90
21563;DHT22;10942;47.894;11.424;2023-05-01T04:33:46;7.20;99.90
21563;DHT22;10942;47.894;11.424;2023-05-01T04:36:12;7.20;99.90
21563;DHT22;10942;47.894;11.424;2023-05-01T04:38:38;7.30;99.90
21563;DHT22;10942;47.894;11.424;2023-05-01T04:41:04;7.40;99.90
21563;DHT22;10942;47.894;11.424;2023-05-01T04:43:30;7.40;99.90
21563;DHT22;10942;47.894;11.424;2023-05-01T04:45:56;7.30;99.90
21563;DHT22;10942;47.894;11.424;2023-05-01T04:48:22;7.30;99.90
21563;DHT22;10942;47.894;11.424;2023-05-01T04:50:48;7.50;99.90
21563;DHT22;10942;47.894;11.424;2023-05-01T04:53:14;7.60;99.90
21563;DHT22;10942;47.894;11.424;2023-05-01T04:55:41;7.60;99.90
21563;DHT22;10942;47.894;11.424;2023-05-01T04:58:13;7.70;99.90
21563;DHT22;10942;47.894;11.424;2023-05-01T05:00:39;7.80;99.90
21563;DHT22;10942;47.894;11.424;2023-05-01T05:03:07;7.80;99.90
21563;DHT22;10942;47.894;11.424;2023-05-01T05:05:32;8.00;99.90
21563;DHT22;10942;47.894;11.424;2023-05-01T05:07:59;8.00;99.90
21563;DHT22;10942;47.894;11.424;2023-05-01T05:10:24;8.10;99.90
21563;DHT22;10942;47.894;11.424;2023-05-01T05:13:05;8.10;99.90
21563;DHT22;10942;47.894;11.424;2023-05-01T05:15:32;8.20;99.90
21563;DHT22;10942;47.894;11.424;2023-05-01T05:17:58;8.10;99.90
21563;DHT22;10942;47.894;11.424;2023-05-01T05:20:23;8.20;99.90
21563;DHT22;10942;47.894;11.424;2023-05-01T05:22:49;8.40;99.90
21563;DHT22;10942;47.894;11.424;2023-05-01T05:25:24;8.40;99.90
21563;DHT22;10942;47.894;11.424;2023-05-01T05:27:50;8.40;99.90
21563;DHT22;10942;47.894;11.424;2023-05-01T05:30:16;8.60;99.90
21563;DHT22;10942;47.894;11.424;2023-05-01T05:32:44;8.70;99.90
21563;DHT22;10942;47.894;11.424;2023-05-01T05:35:10;8.80;99.90
21563;DHT22;10942;47.894;11.424;2023-05-01T05:37:36;8.90;99.90
21563;DHT22;10942;47.894;11.424;2023-05-01T05:40:02;8.90;99.90
21563;DHT22;10942;47.894;11.424;2023-05-01T05:42:35;8.80;99.90
21563;DHT22;10942;47.894;11.424;2023-05-01T05:45:04;9.00;99.90
21563;DHT22;10942;47.894;11.424;2023-05-01T05:47:31;9.00;99.90
21563;DHT22;10942;47.894;11.424;2023-05-01T05:49:57;9.00;99.90
21563;DHT22;10942;47.894;11.424;2023-05-01T05:52:23;9.10;99.90
21563;DHT22;10942;47.894;11.424;2023-05-01T05:54:48;8.90;99.90
21563;DHT22;10942;47.894;11.424;2023-05-01T05:57:14;9.00;99.90
21563;DHT22;10942;47.894;11.424;2023-05-01T05:59:46;9.00;99.90
21563;DHT22;10942;47.894;11.424;2023-05-01T06:02:13;9.10;99.90
21563;DHT22;10942;47.894;11.424;2023-05-01T06:04:39;9.20;99.90
21563;DHT22;10942;47.894;11.424;2023-05-01T06:07:05;9.30;99.90
21563;DHT22;10942;47.894;11.424;2023-05-01T06:09:30;9.30;99.90
21563;DHT22;10942;47.894;11.424;2023-05-01T06:11:56;9.30;99.90
21563;DHT22;10942;47.894;11.424;2023-05-01T06:14:22;9.30;99.90
21563;DHT22;10942;47.894;11.424;2023-05-01T06:16:48;9.30;99.90
21563;DHT22;10942;47.894;11.424;2023-05-01T06:19:14;9.30;99.90
21563;DHT22;10942;47.894;11.424;2023-05-01T06:21:40;9.30;99.90
21563;DHT22;10942;47.894;11.424;2023-05-01T06:24:08;9.30;99.90
21563;DHT22;10942;47.894;11.424;2023-05-01T06:26:45;9.40;99.90
21563;DHT22;10942;47.894;11.424;2023-05-01T06:29:11;9.40;99.90
21563;DHT22;10942;47.894;11.424;2023-05-01T06:31:37;9.50;99.90
21563;DHT22;10942;47.894;11.424;2023-05-01T06:34:03;9.50;99.90
21563;DHT22;10942;47.894;11.424;2023-05-01T06:36:55;9.50;99.90
21563;DHT22;10942;47.894;11.424;2023-05-01T06:39:21;9.60;99.90
21563;DHT22;10942;47.894;11.424;2023-05-01T06:41:48;9.60;99.90
21563;DHT22;10942;47.894;11.424;2023-05-01T06:44:15;9.70;99.90
21563;DHT22;10942;47.894;11.424;2023-05-01T06:46:41;9.70;99.90
21563;DHT22;10942;47.894;11.424;2023-05-01T07:33:01;9.80;99.90
21563;DHT22;10942;47.894;11.424;2023-05-01T07:35:26;11.30;99.90
21563;DHT22;10942;47.894;11.424;2023-05-01T07:37:52;11.30;99.90
21563;DHT22;10942;47.894;11.424;2023-05-01T07:40:19;11.20;99.90
21563;DHT22;10942;47.894;11.424;2023-05-01T07:42:45;11.30;99.90
21563;DHT22;10942;47.894;11.424;2023-05-01T07:45:11;11.30;99.90
21563;DHT22;10942;47.894;11.424;2023-05-01T07:47:36;11.20;99.90
21563;DHT22;10942;47.894;11.424;2023-05-01T07:50:03;11.30;99.90
21563;DHT22;10942;47.894;11.424;2023-05-01T07:52:29;11.40;99.90
21563;DHT22;10942;47.894;11.424;2023-05-01T07:54:55;11.50;99.90
21563;DHT22;10942;47.894;11.424;2023-05-01T07:57:20;11.60;99.90
21563;DHT22;10942;47.894;11.424;2023-05-01T07:59:50;11.70;99.90
21563;DHT22;10942;47.894;11.424;2023-05-01T08:02:17;11.90;99.90
21563;DHT22;10942;47.894;11.424;2023-05-01T08:04:43;11.90;99.90
21563;DHT22;10942;47.894;11.424;2023-05-01T08:07:10;12.00;99.90
21563;DHT22;10942;47.894;11.424;2023-05-01T10:05:18;13.20;99.90
21563;DHT22;10942;47.894;11.424;2023-05-01T10:08:01;13.10;99.90
21563;DHT22;10942;47.894;11.424;2023-05-01T10:10:28;13.10;99.90
21563;DHT22;10942;47.894;11.424;2023-05-01T10:12:53;13.10;99.90
21563;DHT22;10942;47.894;11.424;2023-05-01T10:15:19;13.30;99.90
21563;DHT22;10942;47.894;11.424;2023-05-01T10:17:49;13.20;99.90
21563;DHT22;10942;47.894;11.424;2023-05-01T10:20:16;13.30;99.90
21563;DHT22;10942;47.894;11.424;2023-05-01T10:22:42;13.20;99.90
21563;DHT22;10942;47.894;11.424;2023-05-01T10:25:09;13.30;99.90
21563;DHT22;10942;47.894;11.424;2023-05-01T10:27:38;13.20;99.90
21563;DHT22;10942;47.894;11.424;2023-05-01T10:30:05;13.10;99.90
21563;DHT22;10942;47.894;11.424;2023-05-01T10:32:32;13.20;99.90
21563;DHT22;10942;47.894;11.424;2023-05-01T10:35:05;13.40;99.90
21563;DHT22;10942;47.894;11.424;2023-05-01T10:55:38;13.90;99.90
21563;DHT22;10942;47.894;11.424;2023-05-01T10:58:04;13.70;99.90
21563;DHT22;10942;47.894;11.424;2023-05-01T11:00:31;13.90;99.90
21563;DHT22;10942;47.894;11.424;2023-05-01T11:08:34;14.00;99.90
21563;DHT22;10942;47.894;11.424;2023-05-01T11:14:06;14.30;99.90
21563;DHT22;10942;47.894;11.424;2023-05-01T11:19:00;14.40;99.90
21563;DHT22;10942;47.894;11.424;2023-05-01T17:41:08;12.20;99.90
21563;DHT22;10942;47.894;11.424;2023-05-01T17:43:33;11.90;99.90
21563;DHT22;10942;47.894;11.424;2023-05-01T17:45:59;11.90;99.90
21563;DHT22;10942;47.894;11.424;2023-05-01T17:48:25;11.80;99.90
21563;DHT22;10942;47.894;11.424;2023-05-01T17:50:50;11.70;99.90
21563;DHT22;10942;47.894;11.424;2023-05-01T17:53:16;11.80;99.90
21563;DHT22;10942;47.894;11.424;2023-05-01T17:55:42;11.80;99.90
21563;DHT22;10942;47.894;11.424;2023-05-01T17:58:07;11.70;99.90
21563;DHT22;10942;47.894;11.424;2023-05-01T18:00:33;11.60;99.90
21563;DHT22;10942;47.894;11.424;2023-05-01T18:03:00;11.60;99.90
21563;DHT22;10942;47.894;11.424;2023-05-01T18:05:25;11.60;99.90
21563;DHT22;10942;47.894;11.424;2023-05-01T18:07:51;11.50;99.90
21563;DHT22;10942;47.894;11.424;2023-05-01T18:10:16;11.50;99.90
21563;DHT22;10942;47.894;11.424;2023-05-01T18:12:42;11.50;99.90
21563;DHT22;10942;47.894;11.424;2023-05-01T18:15:10;11.40;99.90
21563;DHT22;10942;47.894;11.424;2023-05-01T18:17:36;11.40;99.90
21563;DHT22;10942;47.894;11.424;2023-05-01T18:20:01;11.50;99.90
